sensor_id;sensor_type;location;lat;lon;timestamp;temperature;humidity
780;DHT22;373;49.342;8.146;2023-07-08T00:00:20;26.30;1.00
780;DHT22;373;49.342;8.146;2023-07-08T00:02:49;26.30;1.00
780;DHT22;373;49.342;8.146;2023-07-08T00:05:19;26.30;1.00
780;DHT22;373;49.342;8.146;2023-07-08T00:07:47;26.10;1.00
780;DHT22;373;49.342;8.146;2023-07-08T00:10:17;25.80;1.00
780;DHT22;373;49.342;8.146;2023-07-08T00:12:46;25.90;1.00
780;DHT22;373;49.342;8.146;2023-07-08T00:15:13;26.10;1.00
780;DHT22;373;49.342;8.146;2023-07-08T00:17:42;25.80;1.00
780;DHT22;373;49.342;8.146;2023-07-08T00:20:14;25.70;1.00
780;DHT22;373;49.342;8.146;2023-07-08T00:22:44;25.80;1.00
780;DHT22;373;49.342;8.146;2023-07-08T00:25:15;26.00;1.00
780;DHT22;373;49.342;8.146;2023-07-08T00:27:43;25.90;1.00
780;DHT22;373;49.342;8.146;2023-07-08T00:30:22;25.90;1.00
780;DHT22;373;49.342;8.146;2023-07-08T00:32:49;25.70;1.00
780;DHT22;373;49.342;8.146;2023-07-08T00:35:24;25.70;1.00
780;DHT22;373;49.342;8.146;2023-07-08T00:37:54;25.50;1.00
780;DHT22;373;49.342;8.146;2023-07-08T00:40:28;25.20;1.00
780;DHT22;373;49.342;8.146;2023-07-08T00:42:56;24.90;1.00
780;DHT22;373;49.342;8.146;2023-07-08T00:45:35;24.90;1.00
780;DHT22;373;49.342;8.146;2023-07-08T00:48:21;24.70;1.00
780;DHT22;373;49.342;8.146;2023-07-08T00:50:50;24.30;1.00
780;DHT22;373;49.342;8.146;2023-07-08T00:53:29;24.30;1.00
780;DHT22;373;49.342;8.146;2023-07-08T00:56:00;24.40;1.00
780;DHT22;373;49.342;8.146;2023-07-08T00:58:31;24.70;1.00
780;DHT22;373;49.342;8.146;2023-07-08T01:01:01;24.60;1.00
780;DHT22;373;49.342;8.146;2023-07-08T01:03:30;24.60;1.00
780;DHT22;373;49.342;8.146;2023-07-08T01:05:58;24.70;1.00
780;DHT22;373;49.342;8.146;2023-07-08T01:08:29;24.50;1.00
780;DHT22;373;49.342;8.146;2023-07-08T01:10:59;24.30;1.00
780;DHT22;373;49.342;8.146;2023-07-08T01:13:32;24.20;1.00
780;DHT22;373;49.342;8.146;2023-07-08T01:16:01;24.30;1.00
780;DHT22;373;49.342;8.146;2023-07-08T01:18:28;24.30;1.00
780;DHT22;373;49.342;8.146;2023-07-08T01:21:00;24.30;1.00
780;DHT22;373;49.342;8.146;2023-07-08T01:23:31;24.30;1.00
780;DHT22;373;49.342;8.146;2023-07-08T01:25:59;24.40;1.00
780;DHT22;373;49.342;8.146;2023-07-08T01:28:27;24.50;1.00
780;DHT22;373;49.342;8.146;2023-07-08T01:30:55;24.50;1.00
780;DHT22;373;49.342;8.146;2023-07-08T01:33:22;24.70;1.00
780;DHT22;373;49.342;8.146;2023-07-08T01:35:50;24.70;1.00
780;DHT22;373;49.342;8.146;2023-07-08T01:38:23;24.70;1.00
780;DHT22;373;49.342;8.146;2023-07-08T01:40:54;24.60;1.00
780;DHT22;373;49.342;8.146;2023-07-08T01:43:22;24.50;1.00
780;DHT22;373;49.342;8.146;2023-07-08T01:45:51;24.60;1.00
780;DHT22;373;49.342;8.146;2023-07-08T01:48:23;24.70;1.00
780;DHT22;373;49.342;8.146;2023-07-08T01:50:56;24.70;1.00
780;DHT22;373;49.342;8.146;2023-07-08T01:53:29;24.50;1.00
780;DHT22;373;49.342;8.146;2023-07-08T01:56:01;24.50;1.00
780;DHT22;373;49.342;8.146;2023-07-08T01:58:28;24.50;1.00
780;DHT22;373;49.342;8.146;2023-07-08T02:00:55;24.30;1.00
780;DHT22;373;49.342;8.146;2023-07-08T02:03:24;24.40;1.00
780;DHT22;373;49.342;8.146;2023-07-08T02:05:55;24.60;1.00
780;DHT22;373;49.342;8.146;2023-07-08T02:08:25;24.60;1.00
780;DHT22;373;49.342;8.146;2023-07-08T02:10:55;24.70;1.00
780;DHT22;373;49.342;8.146;2023-07-08T02:13:24;24.60;1.00
780;DHT22;373;49.342;8.146;2023-07-08T02:15:52;24.50;1.00
780;DHT22;373;49.342;8.146;2023-07-08T02:18:19;24.60;1.00
780;DHT22;373;49.342;8.146;2023-07-08T02:20:47;24.80;1.00
780;DHT22;373;49.342;8.146;2023-07-08T02:23:14;24.90;1.00
780;DHT22;373;49.342;8.146;2023-07-08T02:25:41;24.90;1.00
780;DHT22;373;49.342;8.146;2023-07-08T02:28:16;24.70;1.00
780;DHT22;373;49.342;8.146;2023-07-08T02:30:45;24.70;1.00
780;DHT22;373;49.342;8.146;2023-07-08T02:33:12;24.50;1.00
780;DHT22;373;49.342;8.146;2023-07-08T02:35:40;24.60;1.00
780;DHT22;373;49.342;8.146;2023-07-08T02:38:07;24.50;1.00
780;DHT22;373;49.342;8.146;2023-07-08T02:40:34;24.50;1.00
780;DHT22;373;49.342;8.146;2023-07-08T02:43:01;24.50;1.00
780;DHT22;373;49.342;8.146;2023-07-08T02:45:28;24.50;1.00
780;DHT22;373;49.342;8.146;2023-07-08T02:47:57;24.40;1.00
780;DHT22;373;49.342;8.146;2023-07-08T02:50:24;24.30;1.00
780;DHT22;373;49.342;8.146;2023-07-08T02:52:51;24.30;1.00
780;DHT22;373;49.342;8.146;2023-07-08T02:55:18;24.30;1.00
780;DHT22;373;49.342;8.146;2023-07-08T02:57:45;24.20;1.00
780;DHT22;373;49.342;8.146;2023-07-08T03:00:13;24.30;1.00
780;DHT22;373;49.342;8.146;2023-07-08T03:02:40;24.40;1.00
780;DHT22;373;49.342;8.146;2023-07-08T03:05:09;24.50;1.00
780;DHT22;373;49.342;8.146;2023-07-08T03:07:36;24.50;1.00
780;DHT22;373;49.342;8.146;2023-07-08T03:10:03;24.40;1.00
780;DHT22;373;49.342;8.146;2023-07-08T03:12:32;24.30;1.00
780;DHT22;373;49.342;8.146;2023-07-08T03:15:00;24.50;1.00
780;DHT22;373;49.342;8.146;2023-07-08T03:17:31;24.40;1.00
780;DHT22;373;49.342;8.146;2023-07-08T03:19:58;24.50;1.00
780;DHT22;373;49.342;8.146;2023-07-08T03:22:26;24.40;1.00
780;DHT22;373;49.342;8.146;2023-07-08T03:24:53;24.10;1.00
780;DHT22;373;49.342;8.146;2023-07-08T03:27:22;24.30;1.00
780;DHT22;373;49.342;8.146;2023-07-08T03:29:50;24.40;1.00
780;DHT22;373;49.342;8.146;2023-07-08T03:32:17;24.50;1.00
780;DHT22;373;49.342;8.146;2023-07-08T03:34:44;24.30;1.00
780;DHT22;373;49.342;8.146;2023-07-08T03:37:11;24.20;1.00
780;DHT22;373;49.342;8.146;2023-07-08T03:39:40;24.10;1.00
780;DHT22;373;49.342;8.146;2023-07-08T03:42:07;24.20;1.00
780;DHT22;373;49.342;8.146;2023-07-08T03:44:34;24.10;1.00
780;DHT22;373;49.342;8.146;2023-07-08T03:47:01;24.30;1.00
780;DHT22;373;49.342;8.146;2023-07-08T03:49:29;24.20;1.00
780;DHT22;373;49.342;8.146;2023-07-08T03:51:56;24.30;1.00
780;DHT22;373;49.342;8.146;2023-07-08T03:54:24;24.20;1.00
780;DHT22;373;49.342;8.146;2023-07-08T03:56:55;23.90;1.00
780;DHT22;373;49.342;8.146;2023-07-08T03:59:25;24.10;1.00
780;DHT22;373;49.342;8.146;2023-07-08T04:01:54;24.00;1.00
780;DHT22;373;49.342;8.146;2023-07-08T04:04:22;24.00;1.00
780;DHT22;373;49.342;8.146;2023-07-08T04:06:50;24.00;1.00
780;DHT22;373;49.342;8.146;2023-07-08T04:09:17;24.10;1.00
780;DHT22;373;49.342;8.146;2023-07-08T04:11:44;24.30;1.00
780;DHT22;373;49.342;8.146;2023-07-08T04:14:12;24.10;1.00
780;DHT22;373;49.342;8.146;2023-07-08T04:16:47;23.90;1.00
780;DHT22;373;49.342;8.146;2023-07-08T04:19:15;24.10;1.00
780;DHT22;373;49.342;8.146;2023-07-08T04:21:43;24.40;1.00
780;DHT22;373;49.342;8.146;2023-07-08T04:24:11;24.60;1.00
780;DHT22;373;49.342;8.146;2023-07-08T04:26:38;24.60;1.00
780;DHT22;373;49.342;8.146;2023-07-08T04:29:08;24.60;1.00
780;DHT22;373;49.342;8.146;2023-07-08T04:31:38;24.80;1.00
780;DHT22;373;49.342;8.146;2023-07-08T04:34:05;24.70;1.00
780;DHT22;373;49.342;8.146;2023-07-08T04:36:33;24.30;1.00
780;DHT22;373;49.342;8.146;2023-07-08T04:39:01;24.70;1.00
780;DHT22;373;49.342;8.146;2023-07-08T04:41:28;25.00;1.00
780;DHT22;373;49.342;8.146;2023-07-08T04:43:55;24.70;1.00
780;DHT22;373;49.342;8.146;2023-07-08T04:46:30;24.50;1.00
780;DHT22;373;49.342;8.146;2023-07-08T04:49:03;24.10;1.00
780;DHT22;373;49.342;8.146;2023-07-08T04:51:31;24.30;1.00
780;DHT22;373;49.342;8.146;2023-07-08T04:53:59;24.80;1.00
780;DHT22;373;49.342;8.146;2023-07-08T04:56:35;25.00;14.70
780;DHT22;373;49.342;8.146;2023-07-08T04:59:07;24.80;76.40
780;DHT22;373;49.342;8.146;2023-07-08T05:01:35;24.30;99.90
780;DHT22;373;49.342;8.146;2023-07-08T05:04:04;23.00;1.00
780;DHT22;373;49.342;8.146;2023-07-08T05:06:34;22.40;1.00
780;DHT22;373;49.342;8.146;2023-07-08T05:09:02;21.90;1.00
780;DHT22;373;49.342;8.146;2023-07-08T05:11:30;21.70;1.00
780;DHT22;373;49.342;8.146;2023-07-08T05:13:58;21.70;1.00
780;DHT22;373;49.342;8.146;2023-07-08T05:16:25;22.00;99.90
780;DHT22;373;49.342;8.146;2023-07-08T05:18:53;22.10;99.90
780;DHT22;373;49.342;8.146;2023-07-08T05:21:22;22.00;92.20
780;DHT22;373;49.342;8.146;2023-07-08T05:23:49;22.00;99.90
780;DHT22;373;49.342;8.146;2023-07-08T05:26:17;21.70;99.90
780;DHT22;373;49.342;8.146;2023-07-08T05:28:45;21.60;99.90
780;DHT22;373;49.342;8.146;2023-07-08T05:31:14;21.60;1.00
780;DHT22;373;49.342;8.146;2023-07-08T05:33:42;21.90;99.90
780;DHT22;373;49.342;8.146;2023-07-08T05:36:09;21.90;1.00
780;DHT22;373;49.342;8.146;2023-07-08T05:38:38;22.00;99.90
780;DHT22;373;49.342;8.146;2023-07-08T05:41:05;22.00;1.00
780;DHT22;373;49.342;8.146;2023-07-08T05:43:32;22.00;1.00
780;DHT22;373;49.342;8.146;2023-07-08T05:46:00;22.20;1.00
780;DHT22;373;49.342;8.146;2023-07-08T05:48:28;22.30;99.90
780;DHT22;373;49.342;8.146;2023-07-08T05:50:56;22.30;99.90
780;DHT22;373;49.342;8.146;2023-07-08T05:53:26;22.20;99.90
780;DHT22;373;49.342;8.146;2023-07-08T05:55:55;22.40;99.90
780;DHT22;373;49.342;8.146;2023-07-08T05:58:22;22.40;1.00
780;DHT22;373;49.342;8.146;2023-07-08T06:00:55;22.60;1.00
780;DHT22;373;49.342;8.146;2023-07-08T06:03:22;22.70;1.00
780;DHT22;373;49.342;8.146;2023-07-08T06:05:53;23.00;1.00
780;DHT22;373;49.342;8.146;2023-07-08T06:08:21;23.10;1.00
780;DHT22;373;49.342;8.146;2023-07-08T06:10:49;23.40;99.90
780;DHT22;373;49.342;8.146;2023-07-08T06:13:18;23.50;99.90
780;DHT22;373;49.342;8.146;2023-07-08T06:15:45;23.80;1.00
780;DHT22;373;49.342;8.146;2023-07-08T06:18:13;24.10;1.00
780;DHT22;373;49.342;8.146;2023-07-08T06:20:54;24.00;1.00
780;DHT22;373;49.342;8.146;2023-07-08T06:23:22;23.90;5.00
780;DHT22;373;49.342;8.146;2023-07-08T06:25:49;23.10;1.00
780;DHT22;373;49.342;8.146;2023-07-08T06:28:18;22.80;99.90
780;DHT22;373;49.342;8.146;2023-07-08T06:30:45;22.60;99.90
780;DHT22;373;49.342;8.146;2023-07-08T06:33:13;22.70;99.90
780;DHT22;373;49.342;8.146;2023-07-08T06:35:42;23.00;93.30
780;DHT22;373;49.342;8.146;2023-07-08T06:38:09;23.30;99.90
780;DHT22;373;49.342;8.146;2023-07-08T06:40:37;23.40;1.00
780;DHT22;373;49.342;8.146;2023-07-08T06:43:06;23.20;1.00
780;DHT22;373;49.342;8.146;2023-07-08T06:45:56;23.40;1.00
780;DHT22;373;49.342;8.146;2023-07-08T06:48:23;23.70;99.90
780;DHT22;373;49.342;8.146;2023-07-08T06:50:51;24.10;32.60
780;DHT22;373;49.342;8.146;2023-07-08T06:53:18;24.40;1.00
780;DHT22;373;49.342;8.146;2023-07-08T06:55:46;24.50;1.00
780;DHT22;373;49.342;8.146;2023-07-08T06:58:13;24.60;99.90
780;DHT22;373;49.342;8.146;2023-07-08T07:00:42;24.30;1.00
780;DHT22;373;49.342;8.146;2023-07-08T07:03:11;24.00;99.90
780;DHT22;373;49.342;8.146;2023-07-08T07:05:43;23.80;1.00
780;DHT22;373;49.342;8.146;2023-07-08T07:43:49;24.50;1.00
780;DHT22;373;49.342;8.146;2023-07-08T07:46:17;24.30;1.00
780;DHT22;373;49.342;8.146;2023-07-08T07:48:44;24.40;99.90
780;DHT22;373;49.342;8.146;2023-07-08T07:51:11;24.90;21.30
780;DHT22;373;49.342;8.146;2023-07-08T07:53:39;24.80;19.00
780;DHT22;373;49.342;8.146;2023-07-08T07:56:07;24.70;99.90
780;DHT22;373;49.342;8.146;2023-07-08T07:58:34;24.40;99.90
780;DHT22;373;49.342;8.146;2023-07-08T08:01:03;24.50;99.90
780;DHT22;373;49.342;8.146;2023-07-08T08:03:31;24.40;99.90
780;DHT22;373;49.342;8.146;2023-07-08T08:05:58;24.50;1.00
780;DHT22;373;49.342;8.146;2023-07-08T08:08:26;24.80;99.90
780;DHT22;373;49.342;8.146;2023-07-08T08:10:53;25.40;1.00
780;DHT22;373;49.342;8.146;2023-07-08T08:13:20;25.90;1.00
780;DHT22;373;49.342;8.146;2023-07-08T08:15:48;26.60;24.90
780;DHT22;373;49.342;8.146;2023-07-08T08:18:16;27.30;1.00
780;DHT22;373;49.342;8.146;2023-07-08T08:20:45;27.60;99.90
780;DHT22;373;49.342;8.146;2023-07-08T08:23:12;27.50;99.90
780;DHT22;373;49.342;8.146;2023-07-08T08:25:40;27.60;99.90
780;DHT22;373;49.342;8.146;2023-07-08T08:28:07;28.00;99.90
780;DHT22;373;49.342;8.146;2023-07-08T08:30:35;28.00;99.90
780;DHT22;373;49.342;8.146;2023-07-08T08:33:02;28.50;99.90
780;DHT22;373;49.342;8.146;2023-07-08T08:35:31;28.60;99.90
780;DHT22;373;49.342;8.146;2023-07-08T08:37:58;29.10;99.90
780;DHT22;373;49.342;8.146;2023-07-08T08:40:25;29.50;99.90
780;DHT22;373;49.342;8.146;2023-07-08T08:42:57;29.70;99.90
780;DHT22;373;49.342;8.146;2023-07-08T08:45:26;29.40;99.90
780;DHT22;373;49.342;8.146;2023-07-08T08:47:57;29.50;99.90
780;DHT22;373;49.342;8.146;2023-07-08T08:50:31;29.20;99.90
780;DHT22;373;49.342;8.146;2023-07-08T08:53:00;29.10;99.90
780;DHT22;373;49.342;8.146;2023-07-08T08:55:28;29.40;99.90
780;DHT22;373;49.342;8.146;2023-07-08T08:58:04;29.40;99.90
780;DHT22;373;49.342;8.146;2023-07-08T09:00:41;29.50;99.90
780;DHT22;373;49.342;8.146;2023-07-08T09:03:14;29.20;99.90
780;DHT22;373;49.342;8.146;2023-07-08T09:05:45;28.80;99.90
780;DHT22;373;49.342;8.146;2023-07-08T09:08:14;28.70;99.90
780;DHT22;373;49.342;8.146;2023-07-08T09:10:47;29.00;99.90
780;DHT22;373;49.342;8.146;2023-07-08T09:13:22;29.10;99.90
780;DHT22;373;49.342;8.146;2023-07-08T09:15:57;28.80;99.90
780;DHT22;373;49.342;8.146;2023-07-08T09:18:30;28.50;99.90
780;DHT22;373;49.342;8.146;2023-07-08T09:21:05;28.30;99.90
780;DHT22;373;49.342;8.146;2023-07-08T09:23:38;28.30;99.90
780;DHT22;373;49.342;8.146;2023-07-08T09:26:09;28.50;99.90
780;DHT22;373;49.342;8.146;2023-07-08T09:28:41;28.70;99.90
780;DHT22;373;49.342;8.146;2023-07-08T09:31:22;29.00;99.90
780;DHT22;373;49.342;8.146;2023-07-08T09:33:51;29.50;99.90
780;DHT22;373;49.342;8.146;2023-07-08T09:36:23;29.40;99.90
780;DHT22;373;49.342;8.146;2023-07-08T09:38:51;29.40;99.90
780;DHT22;373;49.342;8.146;2023-07-08T09:41:32;29.70;99.90
780;DHT22;373;49.342;8.146;2023-07-08T09:44:15;30.00;99.90
780;DHT22;373;49.342;8.146;2023-07-08T09:46:43;30.20;99.90
780;DHT22;373;49.342;8.146;2023-07-08T09:49:20;30.20;99.90
780;DHT22;373;49.342;8.146;2023-07-08T09:51:50;29.80;99.90
780;DHT22;373;49.342;8.146;2023-07-08T09:54:19;30.00;99.90
780;DHT22;373;49.342;8.146;2023-07-08T09:56:54;30.20;95.30
780;DHT22;373;49.342;8.146;2023-07-08T09:59:26;30.30;94.90
780;DHT22;373;49.342;8.146;2023-07-08T10:01:55;30.50;92.80
780;DHT22;373;49.342;8.146;2023-07-08T10:04:22;30.60;91.40
780;DHT22;373;49.342;8.146;2023-07-08T10:06:50;30.50;91.30
780;DHT22;373;49.342;8.146;2023-07-08T10:09:24;30.70;84.20
780;DHT22;373;49.342;8.146;2023-07-08T10:11:56;31.20;79.20
780;DHT22;373;49.342;8.146;2023-07-08T10:14:29;31.10;64.40
780;DHT22;373;49.342;8.146;2023-07-08T10:16:57;31.20;67.00
780;DHT22;373;49.342;8.146;2023-07-08T10:19:24;31.60;55.30
780;DHT22;373;49.342;8.146;2023-07-08T10:22:19;31.90;44.00
780;DHT22;373;49.342;8.146;2023-07-08T10:25:04;32.10;37.70
780;DHT22;373;49.342;8.146;2023-07-08T10:27:36;31.70;36.80
780;DHT22;373;49.342;8.146;2023-07-08T10:30:17;31.60;29.90
780;DHT22;373;49.342;8.146;2023-07-08T10:33:10;32.10;29.80
780;DHT22;373;49.342;8.146;2023-07-08T10:35:44;32.60;25.50
780;DHT22;373;49.342;8.146;2023-07-08T10:38:29;32.70;21.00
780;DHT22;373;49.342;8.146;2023-07-08T10:41:06;33.10;16.20
780;DHT22;373;49.342;8.146;2023-07-08T10:43:46;32.40;12.70
780;DHT22;373;49.342;8.146;2023-07-08T10:46:24;32.20;17.30
780;DHT22;373;49.342;8.146;2023-07-08T10:49:21;31.80;19.90
780;DHT22;373;49.342;8.146;2023-07-08T10:51:58;31.60;28.80
780;DHT22;373;49.342;8.146;2023-07-08T10:54:45;31.00;24.60
780;DHT22;373;49.342;8.146;2023-07-08T10:57:26;32.00;26.50
780;DHT22;373;49.342;8.146;2023-07-08T11:00:07;32.40;17.70
780;DHT22;373;49.342;8.146;2023-07-08T11:02:59;32.30;17.40
780;DHT22;373;49.342;8.146;2023-07-08T11:05:35;32.50;11.70
780;DHT22;373;49.342;8.146;2023-07-08T11:08:10;32.10;9.70
780;DHT22;373;49.342;8.146;2023-07-08T11:10:49;32.20;11.40
780;DHT22;373;49.342;8.146;2023-07-08T11:13:18;32.10;10.90
780;DHT22;373;49.342;8.146;2023-07-08T11:15:52;32.50;15.30
780;DHT22;373;49.342;8.146;2023-07-08T11:18:25;33.40;7.90
780;DHT22;373;49.342;8.146;2023-07-08T11:20:59;33.20;1.00
780;DHT22;373;49.342;8.146;2023-07-08T11:23:31;32.60;1.00
780;DHT22;373;49.342;8.146;2023-07-08T11:26:12;32.80;1.00
780;DHT22;373;49.342;8.146;2023-07-08T11:28:43;33.10;1.00
780;DHT22;373;49.342;8.146;2023-07-08T11:31:11;33.10;1.00
780;DHT22;373;49.342;8.146;2023-07-08T11:33:40;32.60;1.00
780;DHT22;373;49.342;8.146;2023-07-08T11:36:09;32.20;1.00
780;DHT22;373;49.342;8.146;2023-07-08T11:38:47;32.60;1.00
780;DHT22;373;49.342;8.146;2023-07-08T11:41:18;33.10;1.00
780;DHT22;373;49.342;8.146;2023-07-08T11:43:48;33.20;1.00
780;DHT22;373;49.342;8.146;2023-07-08T11:46:20;32.80;1.00
780;DHT22;373;49.342;8.146;2023-07-08T11:48:50;32.90;1.00
780;DHT22;373;49.342;8.146;2023-07-08T11:51:22;32.80;1.00
780;DHT22;373;49.342;8.146;2023-07-08T11:53:59;33.10;1.00
780;DHT22;373;49.342;8.146;2023-07-08T11:56:28;32.90;1.00
780;DHT22;373;49.342;8.146;2023-07-08T11:59:16;33.20;1.00
780;DHT22;373;49.342;8.146;2023-07-08T12:01:52;33.50;1.00
780;DHT22;373;49.342;8.146;2023-07-08T12:04:29;33.30;1.00
780;DHT22;373;49.342;8.146;2023-07-08T12:07:10;32.80;1.00
780;DHT22;373;49.342;8.146;2023-07-08T12:09:39;33.20;1.00
780;DHT22;373;49.342;8.146;2023-07-08T12:12:21;33.90;1.00
780;DHT22;373;49.342;8.146;2023-07-08T12:14:48;33.70;1.00
780;DHT22;373;49.342;8.146;2023-07-08T12:17:16;33.70;1.00
780;DHT22;373;49.342;8.146;2023-07-08T12:19:44;33.50;1.00
780;DHT22;373;49.342;8.146;2023-07-08T12:22:15;33.60;1.00
780;DHT22;373;49.342;8.146;2023-07-08T12:24:44;33.80;1.00
780;DHT22;373;49.342;8.146;2023-07-08T12:27:13;33.70;1.00
780;DHT22;373;49.342;8.146;2023-07-08T12:29:40;34.10;1.00
780;DHT22;373;49.342;8.146;2023-07-08T12:32:11;34.00;1.00
780;DHT22;373;49.342;8.146;2023-07-08T12:34:39;33.60;1.00
780;DHT22;373;49.342;8.146;2023-07-08T12:37:11;33.20;1.00
780;DHT22;373;49.342;8.146;2023-07-08T12:39:39;33.20;1.00
780;DHT22;373;49.342;8.146;2023-07-08T12:42:10;33.10;1.00
780;DHT22;373;49.342;8.146;2023-07-08T12:44:39;33.10;1.00
780;DHT22;373;49.342;8.146;2023-07-08T12:47:08;33.40;1.00
780;DHT22;373;49.342;8.146;2023-07-08T12:49:35;33.70;1.00
780;DHT22;373;49.342;8.146;2023-07-08T12:52:03;33.80;1.00
780;DHT22;373;49.342;8.146;2023-07-08T12:54:30;33.70;1.00
780;DHT22;373;49.342;8.146;2023-07-08T12:56:59;33.60;1.00
780;DHT22;373;49.342;8.146;2023-07-08T12:59:26;33.20;1.00
780;DHT22;373;49.342;8.146;2023-07-08T13:01:55;32.80;1.00
780;DHT22;373;49.342;8.146;2023-07-08T13:04:22;32.90;1.00
780;DHT22;373;49.342;8.146;2023-07-08T13:06:49;33.10;1.00
780;DHT22;373;49.342;8.146;2023-07-08T13:09:37;33.10;1.00
780;DHT22;373;49.342;8.146;2023-07-08T13:12:12;33.60;1.00
780;DHT22;373;49.342;8.146;2023-07-08T13:14:40;33.40;1.00
780;DHT22;373;49.342;8.146;2023-07-08T13:17:13;33.10;1.00
780;DHT22;373;49.342;8.146;2023-07-08T13:19:41;32.90;1.00
780;DHT22;373;49.342;8.146;2023-07-08T13:22:14;32.80;1.00
780;DHT22;373;49.342;8.146;2023-07-08T13:24:42;33.20;1.00
780;DHT22;373;49.342;8.146;2023-07-08T13:27:16;33.40;1.00
780;DHT22;373;49.342;8.146;2023-07-08T13:29:45;33.30;1.00
780;DHT22;373;49.342;8.146;2023-07-08T13:32:13;33.40;1.00
780;DHT22;373;49.342;8.146;2023-07-08T13:34:41;33.10;1.00
780;DHT22;373;49.342;8.146;2023-07-08T13:37:11;33.10;1.00
780;DHT22;373;49.342;8.146;2023-07-08T13:39:42;33.20;1.00
780;DHT22;373;49.342;8.146;2023-07-08T13:42:10;33.10;1.00
780;DHT22;373;49.342;8.146;2023-07-08T13:44:42;33.10;1.00
780;DHT22;373;49.342;8.146;2023-07-08T13:47:23;33.10;1.00
780;DHT22;373;49.342;8.146;2023-07-08T13:49:58;33.10;1.00
780;DHT22;373;49.342;8.146;2023-07-08T13:52:29;32.50;1.00
780;DHT22;373;49.342;8.146;2023-07-08T13:55:00;32.20;1.00
780;DHT22;373;49.342;8.146;2023-07-08T13:57:32;32.20;1.00
780;DHT22;373;49.342;8.146;2023-07-08T13:59:59;32.30;1.00
780;DHT22;373;49.342;8.146;2023-07-08T14:02:30;32.80;1.00
780;DHT22;373;49.342;8.146;2023-07-08T14:04:59;32.90;1.00
780;DHT22;373;49.342;8.146;2023-07-08T14:07:28;32.90;1.00
780;DHT22;373;49.342;8.146;2023-07-08T14:09:56;33.20;1.00
780;DHT22;373;49.342;8.146;2023-07-08T14:12:23;32.90;1.00
780;DHT22;373;49.342;8.146;2023-07-08T14:14:50;32.80;1.00
780;DHT22;373;49.342;8.146;2023-07-08T14:17:20;32.30;1.00
780;DHT22;373;49.342;8.146;2023-07-08T14:19:49;32.40;1.00
780;DHT22;373;49.342;8.146;2023-07-08T14:22:22;32.80;1.00
780;DHT22;373;49.342;8.146;2023-07-08T14:24:50;33.00;1.00
780;DHT22;373;49.342;8.146;2023-07-08T14:27:17;33.00;1.00
780;DHT22;373;49.342;8.146;2023-07-08T14:29:54;32.90;1.00
780;DHT22;373;49.342;8.146;2023-07-08T14:32:23;32.70;1.00
780;DHT22;373;49.342;8.146;2023-07-08T14:34:55;32.50;1.00
780;DHT22;373;49.342;8.146;2023-07-08T14:37:22;32.30;1.00
780;DHT22;373;49.342;8.146;2023-07-08T14:39:50;32.30;1.00
780;DHT22;373;49.342;8.146;2023-07-08T14:42:18;32.30;1.00
780;DHT22;373;49.342;8.146;2023-07-08T14:44:48;32.50;1.00
780;DHT22;373;49.342;8.146;2023-07-08T14:47:19;32.40;1.00
780;DHT22;373;49.342;8.146;2023-07-08T14:49:46;32.40;1.00
780;DHT22;373;49.342;8.146;2023-07-08T14:52:13;32.40;1.00
780;DHT22;373;49.342;8.146;2023-07-08T14:54:40;32.70;1.00
780;DHT22;373;49.342;8.146;2023-07-08T14:57:09;32.80;1.00
780;DHT22;373;49.342;8.146;2023-07-08T14:59:42;32.90;1.00
780;DHT22;373;49.342;8.146;2023-07-08T15:02:20;33.10;1.00
780;DHT22;373;49.342;8.146;2023-07-08T15:04:47;33.20;1.00
780;DHT22;373;49.342;8.146;2023-07-08T15:07:15;33.40;1.00
780;DHT22;373;49.342;8.146;2023-07-08T15:09:42;33.50;1.00
780;DHT22;373;49.342;8.146;2023-07-08T15:12:10;33.60;1.00
780;DHT22;373;49.342;8.146;2023-07-08T15:14:39;33.70;1.00
780;DHT22;373;49.342;8.146;2023-07-08T15:17:10;33.20;1.00
780;DHT22;373;49.342;8.146;2023-07-08T15:19:40;33.10;1.00
780;DHT22;373;49.342;8.146;2023-07-08T15:22:07;33.30;1.00
780;DHT22;373;49.342;8.146;2023-07-08T15:24:34;33.40;1.00
780;DHT22;373;49.342;8.146;2023-07-08T15:27:03;33.40;1.00
780;DHT22;373;49.342;8.146;2023-07-08T15:29:32;33.10;1.00
780;DHT22;373;49.342;8.146;2023-07-08T15:32:00;32.90;1.00
780;DHT22;373;49.342;8.146;2023-07-08T15:34:27;32.90;1.00
780;DHT22;373;49.342;8.146;2023-07-08T15:36:55;33.20;1.00
780;DHT22;373;49.342;8.146;2023-07-08T15:39:23;33.40;1.00
780;DHT22;373;49.342;8.146;2023-07-08T15:41:50;33.60;1.00
780;DHT22;373;49.342;8.146;2023-07-08T15:44:18;33.60;1.00
780;DHT22;373;49.342;8.146;2023-07-08T15:46:47;33.90;1.00
780;DHT22;373;49.342;8.146;2023-07-08T15:49:17;33.70;1.00
780;DHT22;373;49.342;8.146;2023-07-08T15:51:45;33.60;1.00
780;DHT22;373;49.342;8.146;2023-07-08T15:54:13;33.20;1.00
780;DHT22;373;49.342;8.146;2023-07-08T15:56:41;33.20;1.00
780;DHT22;373;49.342;8.146;2023-07-08T15:59:11;33.20;1.00
780;DHT22;373;49.342;8.146;2023-07-08T16:01:41;33.10;1.00
780;DHT22;373;49.342;8.146;2023-07-08T16:04:18;33.20;1.00
780;DHT22;373;49.342;8.146;2023-07-08T16:06:47;33.10;1.00
780;DHT22;373;49.342;8.146;2023-07-08T16:09:15;32.90;1.00
780;DHT22;373;49.342;8.146;2023-07-08T16:11:43;32.80;1.00
780;DHT22;373;49.342;8.146;2023-07-08T16:14:12;32.80;1.00
780;DHT22;373;49.342;8.146;2023-07-08T16:16:40;33.00;1.00
780;DHT22;373;49.342;8.146;2023-07-08T16:19:09;33.00;1.00
780;DHT22;373;49.342;8.146;2023-07-08T16:21:36;32.80;1.00
780;DHT22;373;49.342;8.146;2023-07-08T16:24:03;32.80;1.00
780;DHT22;373;49.342;8.146;2023-07-08T16:26:32;32.80;1.00
780;DHT22;373;49.342;8.146;2023-07-08T16:29:02;32.80;1.00
780;DHT22;373;49.342;8.146;2023-07-08T16:31:30;32.80;1.00
780;DHT22;373;49.342;8.146;2023-07-08T16:33:57;32.70;1.00
780;DHT22;373;49.342;8.146;2023-07-08T16:36:26;32.70;1.00
780;DHT22;373;49.342;8.146;2023-07-08T16:38:54;32.70;1.00
780;DHT22;373;49.342;8.146;2023-07-08T16:41:31;32.80;1.00
780;DHT22;373;49.342;8.146;2023-07-08T16:44:08;32.90;1.00
780;DHT22;373;49.342;8.146;2023-07-08T16:46:38;33.10;1.00
780;DHT22;373;49.342;8.146;2023-07-08T16:49:07;33.20;1.00
780;DHT22;373;49.342;8.146;2023-07-08T16:51:34;33.00;1.00
780;DHT22;373;49.342;8.146;2023-07-08T16:54:09;33.10;1.00
780;DHT22;373;49.342;8.146;2023-07-08T16:56:37;33.40;1.00
780;DHT22;373;49.342;8.146;2023-07-08T16:59:06;33.10;1.00
780;DHT22;373;49.342;8.146;2023-07-08T17:01:33;33.00;1.00
780;DHT22;373;49.342;8.146;2023-07-08T17:04:00;33.10;1.00
780;DHT22;373;49.342;8.146;2023-07-08T17:06:28;33.10;1.00
780;DHT22;373;49.342;8.146;2023-07-08T17:08:55;33.10;1.00
780;DHT22;373;49.342;8.146;2023-07-08T17:11:24;32.80;1.00
780;DHT22;373;49.342;8.146;2023-07-08T17:13:51;32.80;1.00
780;DHT22;373;49.342;8.146;2023-07-08T17:16:25;32.80;1.00
780;DHT22;373;49.342;8.146;2023-07-08T17:18:54;32.80;1.00
780;DHT22;373;49.342;8.146;2023-07-08T17:21:22;33.00;1.00
780;DHT22;373;49.342;8.146;2023-07-08T17:23:49;33.00;1.00
780;DHT22;373;49.342;8.146;2023-07-08T17:26:16;33.10;1.00
780;DHT22;373;49.342;8.146;2023-07-08T17:28:43;33.10;1.00
780;DHT22;373;49.342;8.146;2023-07-08T17:31:20;33.10;1.00
780;DHT22;373;49.342;8.146;2023-07-08T17:33:51;33.00;1.00
780;DHT22;373;49.342;8.146;2023-07-08T17:36:23;33.00;1.00
780;DHT22;373;49.342;8.146;2023-07-08T17:38:53;32.80;1.00
780;DHT22;373;49.342;8.146;2023-07-08T17:41:20;32.80;1.00